sensor_id;sensor_type;location;lat;lon;timestamp;P1;durP1;ratioP1;P2;durP2;ratioP2
45107;SDS011;30869;51.188;6.556;2022-11-13T00:00:25;10.82;;;5.55;;
45107;SDS011;30869;51.188;6.556;2022-11-13T00:03:15;12.63;;;5.97;;
45107;SDS011;30869;51.188;6.556;2022-11-13T00:05:47;9.43;;;4.65;;
45107;SDS011;30869;51.188;6.556;2022-11-13T00:14:07;9.40;;;5.45;;
45107;SDS011;30869;51.188;6.556;2022-11-13T00:20:14;9.40;;;5.57;;
45107;SDS011;30869;51.188;6.556;2022-11-13T00:26:25;8.55;;;5.30;;
45107;SDS011;30869;51.188;6.556;2022-11-13T00:28:56;9.35;;;5.53;;
45107;SDS011;30869;51.188;6.556;2022-11-13T00:31:43;11.20;;;5.03;;
45107;SDS011;30869;51.188;6.556;2022-11-13T00:41:28;7.43;;;4.35;;
45107;SDS011;30869;51.188;6.556;2022-11-13T00:43:54;9.18;;;4.93;;
45107;SDS011;30869;51.188;6.556;2022-11-13T00:49:33;8.73;;;5.85;;
45107;SDS011;30869;51.188;6.556;2022-11-13T00:52:12;9.30;;;5.90;;
45107;SDS011;30869;51.188;6.556;2022-11-13T00:54:38;8.50;;;5.53;;
45107;SDS011;30869;51.188;6.556;2022-11-13T00:57:41;8.80;;;5.53;;
45107;SDS011;30869;51.188;6.556;2022-11-13T01:03:34;6.78;;;4.82;;
45107;SDS011;30869;51.188;6.556;2022-11-13T01:06:00;10.52;;;6.00;;
45107;SDS011;30869;51.188;6.556;2022-11-13T01:08:44;8.30;;;5.25;;
45107;SDS011;30869;51.188;6.556;2022-11-13T01:11:11;10.57;;;4.97;;
45107;SDS011;30869;51.188;6.556;2022-11-13T01:13:42;9.23;;;5.70;;
45107;SDS011;30869;51.188;6.556;2022-11-13T01:16:17;12.20;;;5.30;;
45107;SDS011;30869;51.188;6.556;2022-11-13T01:18:53;8.50;;;5.18;;
45107;SDS011;30869;51.188;6.556;2022-11-13T01:21:23;12.88;;;5.05;;
45107;SDS011;30869;51.188;6.556;2022-11-13T01:23:50;8.52;;;5.82;;
45107;SDS011;30869;51.188;6.556;2022-11-13T01:26:25;11.45;;;5.43;;
45107;SDS011;30869;51.188;6.556;2022-11-13T01:31:21;7.23;;;5.53;;
45107;SDS011;30869;51.188;6.556;2022-11-13T01:33:50;13.50;;;7.15;;
45107;SDS011;30869;51.188;6.556;2022-11-13T01:36:21;10.55;;;5.90;;
45107;SDS011;30869;51.188;6.556;2022-11-13T01:38:58;14.35;;;6.18;;
45107;SDS011;30869;51.188;6.556;2022-11-13T01:41:29;8.60;;;6.00;;
45107;SDS011;30869;51.188;6.556;2022-11-13T01:44:01;14.38;;;5.70;;
45107;SDS011;30869;51.188;6.556;2022-11-13T01:48:58;6.07;;;3.58;;
45107;SDS011;30869;51.188;6.556;2022-11-13T01:51:41;6.97;;;4.60;;
45107;SDS011;30869;51.188;6.556;2022-11-13T01:54:14;6.30;;;4.95;;
45107;SDS011;30869;51.188;6.556;2022-11-13T01:56:44;8.63;;;4.75;;
45107;SDS011;30869;51.188;6.556;2022-11-13T01:59:14;6.75;;;4.68;;
45107;SDS011;30869;51.188;6.556;2022-11-13T02:01:42;13.73;;;6.25;;
45107;SDS011;30869;51.188;6.556;2022-11-13T02:04:08;14.80;;;6.72;;
45107;SDS011;30869;51.188;6.556;2022-11-13T02:09:17;10.13;;;6.18;;
45107;SDS011;30869;51.188;6.556;2022-11-13T02:11:54;9.02;;;5.60;;
45107;SDS011;30869;51.188;6.556;2022-11-13T02:14:21;8.90;;;5.90;;
45107;SDS011;30869;51.188;6.556;2022-11-13T02:16:54;8.02;;;5.55;;
45107;SDS011;30869;51.188;6.556;2022-11-13T02:19:36;7.82;;;6.40;;
45107;SDS011;30869;51.188;6.556;2022-11-13T02:25:00;10.18;;;5.40;;
45107;SDS011;30869;51.188;6.556;2022-11-13T02:27:37;7.50;;;5.18;;
45107;SDS011;30869;51.188;6.556;2022-11-13T02:30:17;7.10;;;4.95;;
45107;SDS011;30869;51.188;6.556;2022-11-13T02:32:49;5.13;;;4.35;;
45107;SDS011;30869;51.188;6.556;2022-11-13T02:38:04;7.47;;;4.97;;
45107;SDS011;30869;51.188;6.556;2022-11-13T02:40:33;19.75;;;7.28;;
45107;SDS011;30869;51.188;6.556;2022-11-13T02:43:05;8.13;;;5.07;;
45107;SDS011;30869;51.188;6.556;2022-11-13T02:45:31;10.23;;;5.57;;
45107;SDS011;30869;51.188;6.556;2022-11-13T02:48:00;7.30;;;3.95;;
45107;SDS011;30869;51.188;6.556;2022-11-13T02:52:59;6.20;;;4.82;;
45107;SDS011;30869;51.188;6.556;2022-11-13T02:55:28;6.72;;;4.10;;
45107;SDS011;30869;51.188;6.556;2022-11-13T02:58:09;11.27;;;6.15;;
45107;SDS011;30869;51.188;6.556;2022-11-13T03:00:47;11.70;;;5.72;;
45107;SDS011;30869;51.188;6.556;2022-11-13T03:03:13;15.23;;;5.80;;
45107;SDS011;30869;51.188;6.556;2022-11-13T03:05:42;10.20;;;5.63;;
45107;SDS011;30869;51.188;6.556;2022-11-13T03:08:11;3.95;;;3.45;;
45107;SDS011;30869;51.188;6.556;2022-11-13T03:10:37;6.78;;;3.53;;
45107;SDS011;30869;51.188;6.556;2022-11-13T03:13:05;7.65;;;4.90;;
45107;SDS011;30869;51.188;6.556;2022-11-13T03:15:32;11.32;;;5.00;;
45107;SDS011;30869;51.188;6.556;2022-11-13T03:18:06;5.07;;;3.80;;
45107;SDS011;30869;51.188;6.556;2022-11-13T03:20:44;7.85;;;4.95;;
45107;SDS011;30869;51.188;6.556;2022-11-13T03:23:28;6.75;;;5.65;;
45107;SDS011;30869;51.188;6.556;2022-11-13T03:26:13;8.80;;;5.50;;
45107;SDS011;30869;51.188;6.556;2022-11-13T03:28:42;8.15;;;5.45;;
45107;SDS011;30869;51.188;6.556;2022-11-13T03:31:14;7.95;;;5.80;;
45107;SDS011;30869;51.188;6.556;2022-11-13T03:33:50;5.50;;;4.35;;
45107;SDS011;30869;51.188;6.556;2022-11-13T03:36:17;9.25;;;5.85;;
45107;SDS011;30869;51.188;6.556;2022-11-13T03:38:45;5.68;;;4.72;;
45107;SDS011;30869;51.188;6.556;2022-11-13T03:41:11;11.55;;;5.60;;
45107;SDS011;30869;51.188;6.556;2022-11-13T03:43:40;6.53;;;4.07;;
45107;SDS011;30869;51.188;6.556;2022-11-13T03:46:09;7.45;;;5.70;;
45107;SDS011;30869;51.188;6.556;2022-11-13T03:48:35;7.53;;;5.18;;
45107;SDS011;30869;51.188;6.556;2022-11-13T03:51:06;9.32;;;5.97;;
45107;SDS011;30869;51.188;6.556;2022-11-13T03:53:33;5.15;;;3.92;;
45107;SDS011;30869;51.188;6.556;2022-11-13T03:55:59;6.38;;;4.68;;
45107;SDS011;30869;51.188;6.556;2022-11-13T03:58:25;11.15;;;5.28;;
45107;SDS011;30869;51.188;6.556;2022-11-13T04:00:52;6.00;;;4.47;;
45107;SDS011;30869;51.188;6.556;2022-11-13T04:03:21;11.70;;;5.22;;
45107;SDS011;30869;51.188;6.556;2022-11-13T04:05:50;23.05;;;5.28;;
45107;SDS011;30869;51.188;6.556;2022-11-13T04:08:16;8.35;;;5.28;;
45107;SDS011;30869;51.188;6.556;2022-11-13T04:10:47;7.28;;;4.22;;
45107;SDS011;30869;51.188;6.556;2022-11-13T04:13:14;5.03;;;3.88;;
45107;SDS011;30869;51.188;6.556;2022-11-13T04:15:39;6.90;;;4.88;;
45107;SDS011;30869;51.188;6.556;2022-11-13T04:18:05;3.45;;;3.15;;
45107;SDS011;30869;51.188;6.556;2022-11-13T04:20:34;4.75;;;4.25;;
45107;SDS011;30869;51.188;6.556;2022-11-13T04:22:59;9.25;;;4.32;;
45107;SDS011;30869;51.188;6.556;2022-11-13T04:25:25;6.93;;;4.20;;
45107;SDS011;30869;51.188;6.556;2022-11-13T04:27:52;4.35;;;3.70;;
45107;SDS011;30869;51.188;6.556;2022-11-13T04:30:18;7.15;;;3.92;;
45107;SDS011;30869;51.188;6.556;2022-11-13T04:32:47;7.28;;;5.38;;
45107;SDS011;30869;51.188;6.556;2022-11-13T04:35:13;10.38;;;6.28;;
45107;SDS011;30869;51.188;6.556;2022-11-13T04:37:45;6.57;;;4.40;;
45107;SDS011;30869;51.188;6.556;2022-11-13T04:40:17;3.97;;;3.58;;
45107;SDS011;30869;51.188;6.556;2022-11-13T04:42:44;7.07;;;4.47;;
45107;SDS011;30869;51.188;6.556;2022-11-13T04:45:19;4.60;;;3.15;;
45107;SDS011;30869;51.188;6.556;2022-11-13T04:47:46;7.78;;;5.80;;
45107;SDS011;30869;51.188;6.556;2022-11-13T04:50:18;6.72;;;5.43;;
45107;SDS011;30869;51.188;6.556;2022-11-13T04:52:44;7.40;;;5.53;;
45107;SDS011;30869;51.188;6.556;2022-11-13T04:55:13;7.65;;;5.60;;
45107;SDS011;30869;51.188;6.556;2022-11-13T04:57:40;5.57;;;4.22;;
45107;SDS011;30869;51.188;6.556;2022-11-13T05:00:13;4.85;;;3.70;;
45107;SDS011;30869;51.188;6.556;2022-11-13T05:02:41;9.23;;;5.32;;
45107;SDS011;30869;51.188;6.556;2022-11-13T05:05:07;4.90;;;3.97;;
45107;SDS011;30869;51.188;6.556;2022-11-13T05:07:35;6.10;;;4.35;;
45107;SDS011;30869;51.188;6.556;2022-11-13T05:10:01;7.07;;;5.85;;
45107;SDS011;30869;51.188;6.556;2022-11-13T05:12:35;6.15;;;5.32;;
45107;SDS011;30869;51.188;6.556;2022-11-13T05:15:21;10.60;;;4.78;;
45107;SDS011;30869;51.188;6.556;2022-11-13T05:17:51;9.02;;;6.00;;
45107;SDS011;30869;51.188;6.556;2022-11-13T05:20:18;6.97;;;4.85;;
45107;SDS011;30869;51.188;6.556;2022-11-13T05:22:44;6.60;;;4.82;;
45107;SDS011;30869;51.188;6.556;2022-11-13T05:25:10;4.50;;;3.90;;
45107;SDS011;30869;51.188;6.556;2022-11-13T05:27:35;5.13;;;4.45;;
45107;SDS011;30869;51.188;6.556;2022-11-13T05:30:01;10.55;;;4.93;;
45107;SDS011;30869;51.188;6.556;2022-11-13T05:32:27;3.70;;;3.28;;
45107;SDS011;30869;51.188;6.556;2022-11-13T05:34:53;6.13;;;4.65;;
45107;SDS011;30869;51.188;6.556;2022-11-13T05:37:19;8.00;;;5.57;;
45107;SDS011;30869;51.188;6.556;2022-11-13T05:39:45;3.58;;;3.28;;
45107;SDS011;30869;51.188;6.556;2022-11-13T05:42:10;5.13;;;4.18;;
45107;SDS011;30869;51.188;6.556;2022-11-13T05:44:39;5.55;;;3.67;;
45107;SDS011;30869;51.188;6.556;2022-11-13T05:47:04;7.32;;;5.05;;
45107;SDS011;30869;51.188;6.556;2022-11-13T05:49:30;7.10;;;5.40;;
45107;SDS011;30869;51.188;6.556;2022-11-13T05:51:59;7.05;;;5.38;;
45107;SDS011;30869;51.188;6.556;2022-11-13T05:54:24;6.30;;;5.43;;
45107;SDS011;30869;51.188;6.556;2022-11-13T05:56:50;9.70;;;5.82;;
45107;SDS011;30869;51.188;6.556;2022-11-13T05:59:16;8.90;;;5.72;;
45107;SDS011;30869;51.188;6.556;2022-11-13T06:01:42;5.68;;;4.93;;
45107;SDS011;30869;51.188;6.556;2022-11-13T06:04:08;6.05;;;4.47;;
45107;SDS011;30869;51.188;6.556;2022-11-13T06:06:37;9.55;;;5.95;;
45107;SDS011;30869;51.188;6.556;2022-11-13T06:09:03;7.65;;;5.30;;
45107;SDS011;30869;51.188;6.556;2022-11-13T06:11:30;5.47;;;4.53;;
45107;SDS011;30869;51.188;6.556;2022-11-13T06:13:57;10.98;;;5.28;;
45107;SDS011;30869;51.188;6.556;2022-11-13T06:16:27;9.98;;;5.57;;
45107;SDS011;30869;51.188;6.556;2022-11-13T06:18:58;7.65;;;5.85;;
45107;SDS011;30869;51.188;6.556;2022-11-13T06:21:26;3.90;;;3.47;;
45107;SDS011;30869;51.188;6.556;2022-11-13T06:23:53;6.45;;;5.30;;
45107;SDS011;30869;51.188;6.556;2022-11-13T06:26:21;10.95;;;5.93;;
45107;SDS011;30869;51.188;6.556;2022-11-13T06:28:48;5.95;;;4.40;;
45107;SDS011;30869;51.188;6.556;2022-11-13T06:31:15;7.80;;;5.22;;
45107;SDS011;30869;51.188;6.556;2022-11-13T06:33:47;15.52;;;5.78;;
45107;SDS011;30869;51.188;6.556;2022-11-13T06:36:14;8.20;;;5.90;;
45107;SDS011;30869;51.188;6.556;2022-11-13T06:38:42;7.15;;;5.35;;
45107;SDS011;30869;51.188;6.556;2022-11-13T06:41:09;5.43;;;4.40;;
45107;SDS011;30869;51.188;6.556;2022-11-13T06:43:36;11.07;;;5.80;;
45107;SDS011;30869;51.188;6.556;2022-11-13T06:46:07;9.55;;;5.50;;
45107;SDS011;30869;51.188;6.556;2022-11-13T06:48:37;8.13;;;4.97;;
45107;SDS011;30869;51.188;6.556;2022-11-13T06:51:03;6.68;;;5.15;;
45107;SDS011;30869;51.188;6.556;2022-11-13T06:53:40;3.25;;;2.92;;
45107;SDS011;30869;51.188;6.556;2022-11-13T06:56:09;6.50;;;5.05;;
45107;SDS011;30869;51.188;6.556;2022-11-13T06:58:36;10.65;;;5.55;;
45107;SDS011;30869;51.188;6.556;2022-11-13T07:01:08;8.77;;;5.18;;
45107;SDS011;30869;51.188;6.556;2022-11-13T07:03:36;7.97;;;3.25;;
45107;SDS011;30869;51.188;6.556;2022-11-13T07:06:05;4.88;;;3.25;;
45107;SDS011;30869;51.188;6.556;2022-11-13T07:08:38;8.40;;;5.97;;
45107;SDS011;30869;51.188;6.556;2022-11-13T07:11:25;7.38;;;4.95;;
45107;SDS011;30869;51.188;6.556;2022-11-13T07:13:54;5.55;;;4.10;;
45107;SDS011;30869;51.188;6.556;2022-11-13T07:16:22;5.18;;;4.35;;
45107;SDS011;30869;51.188;6.556;2022-11-13T07:18:57;10.07;;;5.55;;
45107;SDS011;30869;51.188;6.556;2022-11-13T07:21:44;7.88;;;4.90;;
45107;SDS011;30869;51.188;6.556;2022-11-13T07:24:10;9.20;;;5.68;;
45107;SDS011;30869;51.188;6.556;2022-11-13T07:26:36;9.48;;;6.05;;
45107;SDS011;30869;51.188;6.556;2022-11-13T07:29:01;12.43;;;6.03;;
45107;SDS011;30869;51.188;6.556;2022-11-13T07:31:27;7.68;;;5.38;;
45107;SDS011;30869;51.188;6.556;2022-11-13T07:33:53;11.20;;;6.22;;
45107;SDS011;30869;51.188;6.556;2022-11-13T07:36:22;10.88;;;6.20;;
45107;SDS011;30869;51.188;6.556;2022-11-13T07:38:51;8.00;;;6.07;;
45107;SDS011;30869;51.188;6.556;2022-11-13T07:41:16;5.18;;;4.65;;
45107;SDS011;30869;51.188;6.556;2022-11-13T07:43:42;10.60;;;7.10;;
45107;SDS011;30869;51.188;6.556;2022-11-13T07:46:08;9.60;;;6.00;;
45107;SDS011;30869;51.188;6.556;2022-11-13T07:48:35;9.45;;;6.25;;
45107;SDS011;30869;51.188;6.556;2022-11-13T07:51:01;6.35;;;3.90;;
45107;SDS011;30869;51.188;6.556;2022-11-13T07:53:27;14.63;;;6.50;;
45107;SDS011;30869;51.188;6.556;2022-11-13T07:55:53;10.27;;;6.22;;
45107;SDS011;30869;51.188;6.556;2022-11-13T07:58:19;7.18;;;4.30;;
45107;SDS011;30869;51.188;6.556;2022-11-13T08:00:45;6.78;;;4.72;;
45107;SDS011;30869;51.188;6.556;2022-11-13T08:03:12;13.98;;;6.30;;
45107;SDS011;30869;51.188;6.556;2022-11-13T08:05:40;7.50;;;5.65;;
45107;SDS011;30869;51.188;6.556;2022-11-13T08:08:13;9.38;;;6.45;;
45107;SDS011;30869;51.188;6.556;2022-11-13T08:10:39;5.25;;;4.15;;
45107;SDS011;30869;51.188;6.556;2022-11-13T08:13:07;4.88;;;3.83;;
45107;SDS011;30869;51.188;6.556;2022-11-13T08:15:36;6.65;;;5.00;;
45107;SDS011;30869;51.188;6.556;2022-11-13T08:18:05;8.32;;;5.72;;
45107;SDS011;30869;51.188;6.556;2022-11-13T08:20:32;7.35;;;5.47;;
45107;SDS011;30869;51.188;6.556;2022-11-13T08:23:08;7.40;;;5.30;;
45107;SDS011;30869;51.188;6.556;2022-11-13T08:25:37;9.05;;;5.25;;
45107;SDS011;30869;51.188;6.556;2022-11-13T08:28:02;3.35;;;2.85;;
45107;SDS011;30869;51.188;6.556;2022-11-13T08:30:28;4.40;;;3.00;;
45107;SDS011;30869;51.188;6.556;2022-11-13T08:33:03;7.55;;;3.85;;
45107;SDS011;30869;51.188;6.556;2022-11-13T08:35:29;5.63;;;4.47;;
45107;SDS011;30869;51.188;6.556;2022-11-13T08:38:02;7.00;;;4.78;;
45107;SDS011;30869;51.188;6.556;2022-11-13T08:40:28;3.53;;;3.00;;
45107;SDS011;30869;51.188;6.556;2022-11-13T08:42:58;6.43;;;4.68;;
45107;SDS011;30869;51.188;6.556;2022-11-13T08:45:24;6.57;;;4.03;;
45107;SDS011;30869;51.188;6.556;2022-11-13T08:47:50;6.47;;;4.07;;
45107;SDS011;30869;51.188;6.556;2022-11-13T08:50:16;7.13;;;4.25;;
45107;SDS011;30869;51.188;6.556;2022-11-13T08:52:42;10.50;;;3.95;;
45107;SDS011;30869;51.188;6.556;2022-11-13T08:55:08;4.80;;;3.63;;
45107;SDS011;30869;51.188;6.556;2022-11-13T08:57:33;5.95;;;3.78;;
45107;SDS011;30869;51.188;6.556;2022-11-13T08:59:59;2.83;;;2.53;;
45107;SDS011;30869;51.188;6.556;2022-11-13T09:02:25;4.93;;;3.53;;
45107;SDS011;30869;51.188;6.556;2022-11-13T09:04:51;3.72;;;3.17;;
45107;SDS011;30869;51.188;6.556;2022-11-13T09:07:17;4.88;;;3.88;;
45107;SDS011;30869;51.188;6.556;2022-11-13T09:09:43;3.33;;;2.83;;
45107;SDS011;30869;51.188;6.556;2022-11-13T09:12:09;5.18;;;3.63;;
45107;SDS011;30869;51.188;6.556;2022-11-13T09:14:35;5.15;;;3.67;;
45107;SDS011;30869;51.188;6.556;2022-11-13T09:17:01;4.32;;;3.40;;
45107;SDS011;30869;51.188;6.556;2022-11-13T09:19:27;5.60;;;3.65;;
45107;SDS011;30869;51.188;6.556;2022-11-13T09:21:53;5.32;;;3.15;;
45107;SDS011;30869;51.188;6.556;2022-11-13T09:24:19;5.13;;;3.35;;
45107;SDS011;30869;51.188;6.556;2022-11-13T09:26:44;10.80;;;3.42;;
45107;SDS011;30869;51.188;6.556;2022-11-13T09:29:11;5.55;;;2.20;;
45107;SDS011;30869;51.188;6.556;2022-11-13T09:31:36;3.20;;;2.75;;
45107;SDS011;30869;51.188;6.556;2022-11-13T09:34:05;3.30;;;2.72;;
45107;SDS011;30869;51.188;6.556;2022-11-13T09:36:31;4.45;;;2.75;;
45107;SDS011;30869;51.188;6.556;2022-11-13T09:38:56;7.00;;;2.65;;
45107;SDS011;30869;51.188;6.556;2022-11-13T09:41:25;3.58;;;2.60;;
45107;SDS011;30869;51.188;6.556;2022-11-13T09:43:54;2.88;;;2.58;;
45107;SDS011;30869;51.188;6.556;2022-11-13T09:46:36;8.70;;;3.10;;
45107;SDS011;30869;51.188;6.556;2022-11-13T09:49:16;4.43;;;2.60;;
45107;SDS011;30869;51.188;6.556;2022-11-13T09:51:49;4.32;;;2.53;;
45107;SDS011;30869;51.188;6.556;2022-11-13T09:54:17;2.92;;;2.72;;
45107;SDS011;30869;51.188;6.556;2022-11-13T10:04:59;2.30;;;1.98;;
45107;SDS011;30869;51.188;6.556;2022-11-13T10:08:13;3.15;;;2.72;;
45107;SDS011;30869;51.188;6.556;2022-11-13T10:10:47;2.90;;;2.17;;
45107;SDS011;30869;51.188;6.556;2022-11-13T10:13:43;5.07;;;2.00;;
45107;SDS011;30869;51.188;6.556;2022-11-13T10:16:17;2.28;;;1.65;;
45107;SDS011;30869;51.188;6.556;2022-11-13T10:18:57;3.20;;;2.05;;
45107;SDS011;30869;51.188;6.556;2022-11-13T10:21:32;38.28;;;3.90;;
45107;SDS011;30869;51.188;6.556;2022-11-13T10:24:04;7.13;;;2.00;;
45107;SDS011;30869;51.188;6.556;2022-11-13T10:26:59;4.05;;;2.00;;
45107;SDS011;30869;51.188;6.556;2022-11-13T10:29:25;2.55;;;2.28;;
45107;SDS011;30869;51.188;6.556;2022-11-13T10:31:52;3.78;;;1.90;;
45107;SDS011;30869;51.188;6.556;2022-11-13T10:34:19;6.03;;;2.42;;
45107;SDS011;30869;51.188;6.556;2022-11-13T10:39:19;9.40;;;1.88;;
45107;SDS011;30869;51.188;6.556;2022-11-13T10:41:46;2.78;;;1.98;;
45107;SDS011;30869;51.188;6.556;2022-11-13T10:46:45;7.00;;;2.05;;
45107;SDS011;30869;51.188;6.556;2022-11-13T10:49:21;3.28;;;2.47;;
45107;SDS011;30869;51.188;6.556;2022-11-13T10:51:56;4.72;;;3.33;;
45107;SDS011;30869;51.188;6.556;2022-11-13T10:54:29;4.78;;;1.90;;
45107;SDS011;30869;51.188;6.556;2022-11-13T10:57:00;2.25;;;1.98;;
45107;SDS011;30869;51.188;6.556;2022-11-13T10:59:37;8.50;;;3.67;;
45107;SDS011;30869;51.188;6.556;2022-11-13T11:02:14;3.25;;;2.15;;
45107;SDS011;30869;51.188;6.556;2022-11-13T11:04:46;4.38;;;1.83;;
45107;SDS011;30869;51.188;6.556;2022-11-13T11:07:16;2.88;;;1.75;;
45107;SDS011;30869;51.188;6.556;2022-11-13T11:09:44;2.50;;;1.70;;
45107;SDS011;30869;51.188;6.556;2022-11-13T11:12:12;2.15;;;1.58;;
45107;SDS011;30869;51.188;6.556;2022-11-13T11:17:22;1.40;;;1.25;;
45107;SDS011;30869;51.188;6.556;2022-11-13T11:19:54;4.72;;;2.10;;
45107;SDS011;30869;51.188;6.556;2022-11-13T11:22:34;5.10;;;1.40;;
45107;SDS011;30869;51.188;6.556;2022-11-13T11:25:04;3.42;;;2.17;;
45107;SDS011;30869;51.188;6.556;2022-11-13T11:27:42;2.20;;;1.95;;
45107;SDS011;30869;51.188;6.556;2022-11-13T11:32:48;3.20;;;1.70;;
45107;SDS011;30869;51.188;6.556;2022-11-13T11:35:39;2.50;;;1.60;;
45107;SDS011;30869;51.188;6.556;2022-11-13T11:40:52;2.38;;;1.73;;
45107;SDS011;30869;51.188;6.556;2022-11-13T11:43:28;7.43;;;1.95;;
45107;SDS011;30869;51.188;6.556;2022-11-13T11:46:09;3.30;;;1.08;;
45107;SDS011;30869;51.188;6.556;2022-11-13T11:48:39;1.75;;;1.25;;
45107;SDS011;30869;51.188;6.556;2022-11-13T11:51:14;2.65;;;1.30;;
45107;SDS011;30869;51.188;6.556;2022-11-13T12:08:01;1.88;;;1.50;;
45107;SDS011;30869;51.188;6.556;2022-11-13T12:27:17;2.90;;;1.80;;
45107;SDS011;30869;51.188;6.556;2022-11-13T12:35:18;2.20;;;1.60;;
45107;SDS011;30869;51.188;6.556;2022-11-13T12:37:53;2.20;;;1.48;;
45107;SDS011;30869;51.188;6.556;2022-11-13T12:40:41;2.03;;;1.42;;
45107;SDS011;30869;51.188;6.556;2022-11-13T12:43:22;3.83;;;1.58;;
45107;SDS011;30869;51.188;6.556;2022-11-13T12:45:52;2.33;;;1.38;;
45107;SDS011;30869;51.188;6.556;2022-11-13T12:48:31;1.75;;;1.63;;
45107;SDS011;30869;51.188;6.556;2022-11-13T12:50:59;2.75;;;1.55;;
45107;SDS011;30869;51.188;6.556;2022-11-13T12:53:29;1.45;;;1.27;;
45107;SDS011;30869;51.188;6.556;2022-11-13T12:56:07;2.60;;;1.30;;
45107;SDS011;30869;51.188;6.556;2022-11-13T12:58:40;2.65;;;1.40;;
45107;SDS011;30869;51.188;6.556;2022-11-13T13:01:17;3.58;;;1.20;;
45107;SDS011;30869;51.188;6.556;2022-11-13T13:03:50;2.03;;;1.45;;
45107;SDS011;30869;51.188;6.556;2022-11-13T13:17:23;2.38;;;1.70;;
45107;SDS011;30869;51.188;6.556;2022-11-13T13:20:03;7.00;;;1.67;;
45107;SDS011;30869;51.188;6.556;2022-11-13T13:22:56;2.10;;;1.75;;
45107;SDS011;30869;51.188;6.556;2022-11-13T13:28:13;2.17;;;1.50;;
45107;SDS011;30869;51.188;6.556;2022-11-13T13:30:56;2.83;;;1.48;;
45107;SDS011;30869;51.188;6.556;2022-11-13T13:33:43;1.55;;;1.42;;
45107;SDS011;30869;51.188;6.556;2022-11-13T13:36:28;2.13;;;1.70;;
45107;SDS011;30869;51.188;6.556;2022-11-13T13:41:47;3.08;;;1.42;;
45107;SDS011;30869;51.188;6.556;2022-11-13T13:47:24;5.68;;;1.42;;
45107;SDS011;30869;51.188;6.556;2022-11-13T13:49:51;2.38;;;1.27;;
45107;SDS011;30869;51.188;6.556;2022-11-13T13:52:18;2.55;;;1.80;;
45107;SDS011;30869;51.188;6.556;2022-11-13T13:54:50;3.47;;;1.50;;
45107;SDS011;30869;51.188;6.556;2022-11-13T13:57:16;2.08;;;1.58;;
45107;SDS011;30869;51.188;6.556;2022-11-13T13:59:42;2.03;;;1.42;;
45107;SDS011;30869;51.188;6.556;2022-11-13T14:02:21;2.22;;;1.45;;
45107;SDS011;30869;51.188;6.556;2022-11-13T14:04:48;2.42;;;1.60;;
45107;SDS011;30869;51.188;6.556;2022-11-13T14:07:23;2.80;;;1.30;;
45107;SDS011;30869;51.188;6.556;2022-11-13T14:12:40;3.90;;;1.50;;
45107;SDS011;30869;51.188;6.556;2022-11-13T14:18:11;2.08;;;1.40;;
45107;SDS011;30869;51.188;6.556;2022-11-13T14:20:39;3.65;;;2.00;;
45107;SDS011;30869;51.188;6.556;2022-11-13T14:23:11;1.65;;;1.35;;
45107;SDS011;30869;51.188;6.556;2022-11-13T14:25:39;2.45;;;1.60;;
45107;SDS011;30869;51.188;6.556;2022-11-13T14:28:10;1.63;;;1.38;;
45107;SDS011;30869;51.188;6.556;2022-11-13T14:30:50;4.28;;;1.70;;
45107;SDS011;30869;51.188;6.556;2022-11-13T14:33:22;2.70;;;1.75;;
45107;SDS011;30869;51.188;6.556;2022-11-13T14:35:54;2.42;;;2.03;;
45107;SDS011;30869;51.188;6.556;2022-11-13T14:38:23;4.43;;;2.00;;
45107;SDS011;30869;51.188;6.556;2022-11-13T14:40:51;7.05;;;2.10;;
45107;SDS011;30869;51.188;6.556;2022-11-13T14:43:24;2.97;;;2.10;;
45107;SDS011;30869;51.188;6.556;2022-11-13T14:46:05;3.97;;;2.33;;
45107;SDS011;30869;51.188;6.556;2022-11-13T14:48:57;7.65;;;1.85;;
45107;SDS011;30869;51.188;6.556;2022-11-13T14:51:27;3.30;;;2.08;;
45107;SDS011;30869;51.188;6.556;2022-11-13T14:53:56;6.60;;;2.40;;
45107;SDS011;30869;51.188;6.556;2022-11-13T14:56:34;3.78;;;1.77;;
45107;SDS011;30869;51.188;6.556;2022-11-13T15:01:35;8.40;;;2.10;;
45107;SDS011;30869;51.188;6.556;2022-11-13T15:04:01;1.92;;;1.63;;
45107;SDS011;30869;51.188;6.556;2022-11-13T15:06:33;2.90;;;2.15;;
45107;SDS011;30869;51.188;6.556;2022-11-13T15:09:01;5.93;;;2.50;;
45107;SDS011;30869;51.188;6.556;2022-11-13T15:11:27;7.18;;;2.65;;
45107;SDS011;30869;51.188;6.556;2022-11-13T15:13:53;10.68;;;2.80;;
45107;SDS011;30869;51.188;6.556;2022-11-13T15:16:22;71.65;;;6.13;;
45107;SDS011;30869;51.188;6.556;2022-11-13T15:18:57;15.38;;;4.95;;
45107;SDS011;30869;51.188;6.556;2022-11-13T15:21:26;17.42;;;4.93;;
45107;SDS011;30869;51.188;6.556;2022-11-13T15:23:52;9.82;;;5.45;;
45107;SDS011;30869;51.188;6.556;2022-11-13T15:26:18;29.70;;;4.57;;
45107;SDS011;30869;51.188;6.556;2022-11-13T15:28:44;11.18;;;3.85;;
45107;SDS011;30869;51.188;6.556;2022-11-13T15:33:54;3.53;;;2.72;;
45107;SDS011;30869;51.188;6.556;2022-11-13T15:36:19;3.85;;;2.50;;
45107;SDS011;30869;51.188;6.556;2022-11-13T15:38:45;4.63;;;2.80;;
45107;SDS011;30869;51.188;6.556;2022-11-13T15:41:15;11.15;;;4.53;;
45107;SDS011;30869;51.188;6.556;2022-11-13T15:43:47;5.75;;;2.97;;
45107;SDS011;30869;51.188;6.556;2022-11-13T15:46:15;7.05;;;2.92;;
45107;SDS011;30869;51.188;6.556;2022-11-13T15:48:45;10.68;;;3.05;;
45107;SDS011;30869;51.188;6.556;2022-11-13T15:51:14;10.38;;;3.15;;
45107;SDS011;30869;51.188;6.556;2022-11-13T15:56:31;6.35;;;2.78;;
45107;SDS011;30869;51.188;6.556;2022-11-13T15:58:56;9.98;;;5.07;;
45107;SDS011;30869;51.188;6.556;2022-11-13T16:01:23;5.75;;;3.05;;
45107;SDS011;30869;51.188;6.556;2022-11-13T16:03:49;5.53;;;3.00;;
45107;SDS011;30869;51.188;6.556;2022-11-13T16:06:17;6.72;;;2.78;;
45107;SDS011;30869;51.188;6.556;2022-11-13T16:08:44;3.78;;;2.50;;
45107;SDS011;30869;51.188;6.556;2022-11-13T16:11:13;5.80;;;2.50;;
45107;SDS011;30869;51.188;6.556;2022-11-13T16:13:41;7.03;;;3.75;;
45107;SDS011;30869;51.188;6.556;2022-11-13T16:16:20;11.90;;;3.38;;
45107;SDS011;30869;51.188;6.556;2022-11-13T16:18:48;47.97;;;4.88;;
45107;SDS011;30869;51.188;6.556;2022-11-13T16:21:15;23.45;;;3.15;;
45107;SDS011;30869;51.188;6.556;2022-11-13T16:23:43;33.55;;;4.53;;
45107;SDS011;30869;51.188;6.556;2022-11-13T16:26:12;23.63;;;4.68;;
45107;SDS011;30869;51.188;6.556;2022-11-13T16:28:39;14.40;;;3.40;;
45107;SDS011;30869;51.188;6.556;2022-11-13T16:31:04;25.38;;;4.13;;
45107;SDS011;30869;51.188;6.556;2022-11-13T16:33:30;27.10;;;5.20;;
45107;SDS011;30869;51.188;6.556;2022-11-13T16:35:56;28.70;;;3.80;;
45107;SDS011;30869;51.188;6.556;2022-11-13T16:38:21;18.23;;;3.20;;
45107;SDS011;30869;51.188;6.556;2022-11-13T16:40:47;14.02;;;3.83;;
45107;SDS011;30869;51.188;6.556;2022-11-13T16:43:13;13.20;;;3.90;;
45107;SDS011;30869;51.188;6.556;2022-11-13T16:45:39;20.02;;;9.55;;
45107;SDS011;30869;51.188;6.556;2022-11-13T16:48:05;16.75;;;7.07;;
45107;SDS011;30869;51.188;6.556;2022-11-13T16:50:37;13.02;;;3.75;;
45107;SDS011;30869;51.188;6.556;2022-11-13T16:53:03;27.75;;;5.75;;
45107;SDS011;30869;51.188;6.556;2022-11-13T16:55:34;11.27;;;4.05;;
45107;SDS011;30869;51.188;6.556;2022-11-13T16:58:01;14.18;;;4.30;;
45107;SDS011;30869;51.188;6.556;2022-11-13T17:00:27;16.10;;;4.05;;
45107;SDS011;30869;51.188;6.556;2022-11-13T17:02:52;18.50;;;4.68;;
45107;SDS011;30869;51.188;6.556;2022-11-13T17:05:19;13.73;;;3.10;;
45107;SDS011;30869;51.188;6.556;2022-11-13T17:07:46;10.95;;;3.70;;
45107;SDS011;30869;51.188;6.556;2022-11-13T17:10:12;16.48;;;3.55;;
45107;SDS011;30869;51.188;6.556;2022-11-13T17:12:39;10.35;;;3.58;;
45107;SDS011;30869;51.188;6.556;2022-11-13T17:15:06;12.60;;;3.08;;
45107;SDS011;30869;51.188;6.556;2022-11-13T17:17:35;10.70;;;4.35;;